createdAt,value
2018-03-06T00:01:50.205Z,92.20
2018-03-06T00:04:20.479Z,91.90
2018-03-06T00:06:49.120Z,91.90
2018-03-06T00:09:17.565Z,92.00
2018-03-06T00:11:45.868Z,92.00
2018-03-06T00:14:21.670Z,91.80
2018-03-06T00:16:50.303Z,91.80
2018-03-06T00:19:19.478Z,91.80
2018-03-06T00:21:47.784Z,91.80
2018-03-06T00:24:17.073Z,92.10
2018-03-06T00:26:45.430Z,91.80
2018-03-06T00:29:13.828Z,91.80
2018-03-06T00:31:42.914Z,92.10
2018-03-06T00:34:11.271Z,91.80
2018-03-06T00:36:39.708Z,91.80
2018-03-06T00:39:08.156Z,91.70
2018-03-06T00:41:38.078Z,91.60
2018-03-06T00:44:06.353Z,91.60
2018-03-06T00:46:34.838Z,91.60
2018-03-06T00:49:03.118Z,91.80
2018-03-06T00:51:31.490Z,91.90
2018-03-06T00:53:59.977Z,92.10
2018-03-06T00:56:28.451Z,92.30
2018-03-06T00:58:56.754Z,92.20
2018-03-06T01:01:25.819Z,92.20
2018-03-06T01:03:54.301Z,92.20
2018-03-06T01:06:23.634Z,92.10
2018-03-06T01:08:52.775Z,91.90
2018-03-06T01:11:21.518Z,91.90
2018-03-06T01:13:49.867Z,91.90
2018-03-06T01:16:19.100Z,91.90
2018-03-06T01:18:47.664Z,92.20
2018-03-06T01:21:17.683Z,92.10
2018-03-06T01:23:46.395Z,92.20
2018-03-06T01:26:14.769Z,92.30
2018-03-06T01:28:43.667Z,92.30
2018-03-06T01:31:11.975Z,92.10
2018-03-06T01:33:40.475Z,92.30
2018-03-06T01:36:08.848Z,92.60
2018-03-06T01:38:38.155Z,92.60
2018-03-06T01:41:06.593Z,92.60
2018-03-06T01:43:35.078Z,92.40
2018-03-06T01:46:03.533Z,92.60
2018-03-06T01:48:32.031Z,92.60
2018-03-06T01:51:00.305Z,93.00
2018-03-06T01:53:29.800Z,92.90
2018-03-06T01:55:58.913Z,92.70
2018-03-06T01:58:27.991Z,92.90
2018-03-06T02:00:56.471Z,92.90
2018-03-06T02:03:25.894Z,93.00
2018-03-06T02:05:54.184Z,93.00
2018-03-06T02:08:23.230Z,93.00
2018-03-06T02:10:51.625Z,92.90
2018-03-06T02:13:19.947Z,93.00
2018-03-06T02:15:48.532Z,92.70
2018-03-06T02:18:17.178Z,92.60
2018-03-06T02:20:45.456Z,92.60
2018-03-06T02:23:13.873Z,92.60
2018-03-06T02:25:43.038Z,92.80
2018-03-06T02:28:12.546Z,92.80
2018-03-06T02:30:41.840Z,92.90
2018-03-06T02:33:10.936Z,93.10
2018-03-06T02:35:39.328Z,93.10
2018-03-06T02:38:07.742Z,93.00
2018-03-06T02:40:36.042Z,93.30
2018-03-06T02:43:05.250Z,92.70
2018-03-06T02:45:33.552Z,92.70
2018-03-06T02:48:02.030Z,92.50
2018-03-06T02:50:30.313Z,92.70
2018-03-06T02:52:59.586Z,92.70
2018-03-06T02:55:27.926Z,92.70
2018-03-06T02:57:56.511Z,92.70
2018-03-06T03:00:24.876Z,92.70
2018-03-06T03:02:53.236Z,92.90
2018-03-06T03:05:22.511Z,93.10
2018-03-06T03:07:51.753Z,93.00
2018-03-06T03:10:21.627Z,92.80
2018-03-06T03:12:50.064Z,92.80
2018-03-06T03:15:19.047Z,92.80
2018-03-06T03:17:47.440Z,92.60
2018-03-06T03:20:16.515Z,92.40
2018-03-06T03:22:44.857Z,92.40
2018-03-06T03:25:13.938Z,92.30
2018-03-06T03:27:42.283Z,92.20
2018-03-06T03:30:11.449Z,91.90
2018-03-06T03:32:39.729Z,91.90
2018-03-06T03:35:09.152Z,91.50
2018-03-06T03:37:37.556Z,91.50
2018-03-06T03:40:05.884Z,91.40
2018-03-06T03:42:35.148Z,91.60
2018-03-06T03:45:04.553Z,91.60
2018-03-06T03:47:32.911Z,91.50
2018-03-06T03:50:02.007Z,91.60
2018-03-06T03:52:30.248Z,91.60
2018-03-06T03:54:58.699Z,91.70
2018-03-06T03:57:27.114Z,91.50
2018-03-06T03:59:55.495Z,91.20
2018-03-06T04:02:25.393Z,91.00
2018-03-06T04:04:53.764Z,91.00
2018-03-06T04:07:22.384Z,91.00
2018-03-06T04:09:50.739Z,91.10
2018-03-06T04:12:19.140Z,91.10
2018-03-06T04:14:47.772Z,91.20
2018-03-06T04:17:16.311Z,91.30
2018-03-06T04:19:45.430Z,91.40
2018-03-06T04:22:13.788Z,91.50
2018-03-06T04:24:42.050Z,91.50
2018-03-06T04:27:10.474Z,91.50
2018-03-06T04:29:39.655Z,91.40
2018-03-06T04:32:07.957Z,91.40
2018-03-06T04:34:36.298Z,91.10
2018-03-06T04:37:06.114Z,91.20
2018-03-06T04:39:35.475Z,91.30
2018-03-06T04:42:03.761Z,91.20
2018-03-06T04:44:32.170Z,91.20
2018-03-06T04:47:01.267Z,91.80
2018-03-06T04:49:29.588Z,91.80
2018-03-06T04:51:58.734Z,92.20
2018-03-06T04:54:28.400Z,92.70
2018-03-06T04:56:56.747Z,92.30
2018-03-06T04:59:25.824Z,92.10
2018-03-06T05:01:54.631Z,91.90
2018-03-06T05:04:23.843Z,91.60
2018-03-06T05:06:53.014Z,91.50
2018-03-06T05:09:22.166Z,91.40
2018-03-06T05:11:51.434Z,91.30
2018-03-06T05:14:19.722Z,91.30
2018-03-06T05:16:48.799Z,91.60
2018-03-06T05:19:18.189Z,91.50
2018-03-06T05:21:46.449Z,91.50
2018-03-06T05:24:14.941Z,91.50
2018-03-06T05:26:43.230Z,91.70
2018-03-06T05:29:12.283Z,91.80
2018-03-06T05:31:40.839Z,91.80
2018-03-06T05:34:09.433Z,91.70
2018-03-06T05:36:37.830Z,91.80
2018-03-06T05:39:06.354Z,92.00
2018-03-06T05:41:34.744Z,92.00
2018-03-06T05:44:03.807Z,91.90
2018-03-06T05:46:32.076Z,91.90
2018-03-06T05:49:00.518Z,92.30
2018-03-06T05:51:28.810Z,91.90
2018-03-06T05:53:57.152Z,91.80
2018-03-06T05:56:26.455Z,92.20
2018-03-06T05:58:55.190Z,91.90
2018-03-06T06:01:24.752Z,91.80
2018-03-06T06:03:53.828Z,92.00
2018-03-06T06:06:22.976Z,92.20
2018-03-06T06:08:52.011Z,92.40
2018-03-06T06:11:20.330Z,92.40
2018-03-06T06:13:48.702Z,92.70
2018-03-06T06:16:16.950Z,92.50
2018-03-06T06:18:45.239Z,92.40
2018-03-06T06:21:13.532Z,92.30
2018-03-06T06:23:42.667Z,93.00
2018-03-06T06:26:11.014Z,92.70
2018-03-06T06:28:39.524Z,92.90
2018-03-06T06:31:08.526Z,93.00
2018-03-06T06:33:36.925Z,93.00
2018-03-06T06:36:05.288Z,93.20
2018-03-06T06:38:33.566Z,93.40
2018-03-06T06:41:02.708Z,93.60
2018-03-06T06:43:31.094Z,93.80
2018-03-06T06:45:59.570Z,94.00
2018-03-06T06:48:33.912Z,94.30
2018-03-06T06:51:02.198Z,94.40
2018-03-06T06:53:30.542Z,94.50
2018-03-06T06:55:59.219Z,94.00
2018-03-06T06:58:27.518Z,94.00
2018-03-06T07:00:57.666Z,94.00
2018-03-06T07:03:26.831Z,93.50
2018-03-06T07:05:55.066Z,93.50
2018-03-06T07:08:24.421Z,93.00
2018-03-06T07:10:52.756Z,93.00
2018-03-06T07:13:21.374Z,93.10
2018-03-06T07:15:49.979Z,93.00
2018-03-06T07:18:18.235Z,92.90
2018-03-06T07:20:46.549Z,93.00
2018-03-06T07:23:14.907Z,93.20
2018-03-06T07:25:43.413Z,93.20
2018-03-06T07:28:11.689Z,93.40
2018-03-06T07:30:40.173Z,93.40
2018-03-06T07:33:09.537Z,93.30
2018-03-06T07:35:38.743Z,93.30
2018-03-06T07:38:08.020Z,93.00
2018-03-06T07:40:36.526Z,92.90
2018-03-06T07:43:04.894Z,92.80
2018-03-06T07:45:33.514Z,92.70
2018-03-06T07:48:01.865Z,92.70
2018-03-06T07:50:30.493Z,92.20
2018-03-06T07:52:59.749Z,92.10
2018-03-06T07:55:28.055Z,92.10
2018-03-06T07:57:56.517Z,91.90
2018-03-06T08:00:25.001Z,91.90
2018-03-06T08:02:53.333Z,91.70
2018-03-06T08:05:21.761Z,92.30
2018-03-06T08:07:50.186Z,91.60
2018-03-06T08:10:18.526Z,91.30
2018-03-06T08:12:46.822Z,91.50
2018-03-06T08:15:15.871Z,90.90
2018-03-06T08:17:44.783Z,90.80
2018-03-06T08:20:13.405Z,90.80
2018-03-06T08:22:41.742Z,90.80
2018-03-06T08:25:10.034Z,90.80
2018-03-06T08:27:38.498Z,90.30
2018-03-06T08:30:06.747Z,90.40
2018-03-06T08:32:35.012Z,90.10
2018-03-06T08:35:03.337Z,89.00
2018-03-06T08:37:31.734Z,89.50
2018-03-06T08:40:00.105Z,88.10
2018-03-06T08:42:28.354Z,88.80
2018-03-06T08:44:56.633Z,89.60
2018-03-06T08:47:24.910Z,89.50
2018-03-06T08:49:53.318Z,88.60
2018-03-06T08:52:21.603Z,88.90
2018-03-06T08:54:49.890Z,88.70
2018-03-06T08:57:18.148Z,88.10
2018-03-06T08:59:46.422Z,87.70
2018-03-06T09:02:15.482Z,86.80
2018-03-06T09:04:43.888Z,86.70
2018-03-06T09:07:12.206Z,87.10
2018-03-06T09:09:41.488Z,88.00
2018-03-06T09:12:10.090Z,88.00
2018-03-06T09:14:38.466Z,87.50
2018-03-06T09:17:08.389Z,86.00
2018-03-06T09:19:37.460Z,84.30
2018-03-06T09:22:05.838Z,84.20
2018-03-06T09:24:34.147Z,84.50
2018-03-06T09:27:03.170Z,82.70
2018-03-06T09:29:31.457Z,82.70
2018-03-06T09:31:59.839Z,80.80
2018-03-06T09:34:29.135Z,80.80
2018-03-06T09:36:57.601Z,80.00
2018-03-06T09:39:27.848Z,78.10
2018-03-06T09:41:56.241Z,78.30
2018-03-06T09:44:24.640Z,78.70
2018-03-06T09:46:52.857Z,78.70
2018-03-06T09:49:21.247Z,78.80
2018-03-06T09:51:50.334Z,79.10
2018-03-06T09:54:19.361Z,79.70
2018-03-06T09:56:47.747Z,79.70
2018-03-06T09:59:16.009Z,78.90
2018-03-06T10:01:44.583Z,78.90
2018-03-06T10:04:12.991Z,78.20
2018-03-06T10:06:41.384Z,77.40
2018-03-06T10:09:09.655Z,77.70
2018-03-06T10:11:38.031Z,77.30
2018-03-06T10:14:06.506Z,78.70
2018-03-06T10:16:34.900Z,78.50
2018-03-06T10:19:03.200Z,79.50
2018-03-06T10:21:31.518Z,78.50
2018-03-06T10:23:59.925Z,78.10
2018-03-06T10:26:28.305Z,78.40
2018-03-06T10:28:56.580Z,79.30
2018-03-06T10:31:24.868Z,78.70
2018-03-06T10:33:54.159Z,78.00
2018-03-06T10:36:22.547Z,78.00
2018-03-06T10:38:51.818Z,77.10
2018-03-06T10:41:20.135Z,77.10
2018-03-06T10:43:48.521Z,75.80
2018-03-06T10:46:17.034Z,75.30
2018-03-06T10:48:45.334Z,73.90
2018-03-06T10:51:13.640Z,75.20
2018-03-06T10:53:42.131Z,74.30
2018-03-06T10:56:10.713Z,72.70
2018-03-06T10:58:40.360Z,71.70
2018-03-06T11:01:09.575Z,69.80
2018-03-06T11:03:38.002Z,69.80
2018-03-06T11:06:07.512Z,69.50
2018-03-06T11:08:35.895Z,69.50
2018-03-06T11:11:05.000Z,66.30
2018-03-06T11:13:34.224Z,69.00
2018-03-06T11:16:03.388Z,68.40
2018-03-06T11:18:31.876Z,68.50
2018-03-06T11:21:00.185Z,66.40
2018-03-06T11:23:29.641Z,67.80
2018-03-06T11:25:58.131Z,67.80
2018-03-06T11:28:27.382Z,66.70
2018-03-06T11:30:55.656Z,66.10
2018-03-06T11:33:23.985Z,64.90
2018-03-06T11:35:52.384Z,62.90
2018-03-06T11:38:21.015Z,63.20
2018-03-06T11:40:50.143Z,65.90
2018-03-06T11:43:18.551Z,64.60
2018-03-06T11:45:47.011Z,64.70
2018-03-06T11:48:15.327Z,64.80
2018-03-06T11:50:44.331Z,63.80
2018-03-06T11:53:13.478Z,64.60
2018-03-06T11:55:42.068Z,64.60
2018-03-06T11:58:10.438Z,64.10
2018-03-06T12:00:38.829Z,64.80
2018-03-06T12:03:07.908Z,60.80
2018-03-06T12:05:36.253Z,60.70
2018-03-06T12:08:05.611Z,61.40
2018-03-06T12:10:33.970Z,61.40
2018-03-06T12:13:02.370Z,59.70
2018-03-06T12:15:30.680Z,60.40
2018-03-06T12:17:58.943Z,58.10
2018-03-06T12:20:27.310Z,58.70
2018-03-06T12:22:55.750Z,59.10
2018-03-06T12:25:24.480Z,59.10
2018-03-06T12:27:53.586Z,57.70
2018-03-06T12:30:21.959Z,57.70
2018-03-06T12:32:50.264Z,58.80
2018-03-06T12:35:19.726Z,58.60
2018-03-06T12:37:48.031Z,58.50
2018-03-06T12:40:17.147Z,57.90
2018-03-06T12:42:46.312Z,57.90
2018-03-06T12:45:14.662Z,57.90
2018-03-06T12:47:43.110Z,57.90
2018-03-06T12:50:11.389Z,57.70
2018-03-06T12:52:40.630Z,55.70
2018-03-06T12:55:09.022Z,55.70
2018-03-06T12:57:37.267Z,54.60
2018-03-06T13:00:05.679Z,54.20
2018-03-06T13:02:34.165Z,55.70
2018-03-06T13:05:02.455Z,55.30
2018-03-06T13:07:30.748Z,56.20
2018-03-06T13:09:59.225Z,56.20
2018-03-06T13:12:29.049Z,57.20
2018-03-06T13:14:58.308Z,57.20
2018-03-06T13:17:26.775Z,56.90
2018-03-06T13:19:55.169Z,55.90
2018-03-06T13:22:23.492Z,56.10
2018-03-06T13:24:51.773Z,56.80
2018-03-06T13:27:20.927Z,57.10
2018-03-06T13:29:49.424Z,57.10
2018-03-06T13:32:17.693Z,58.00
2018-03-06T13:34:45.962Z,57.60
2018-03-06T13:37:14.265Z,56.40
2018-03-06T13:39:42.620Z,57.60
2018-03-06T13:42:12.397Z,57.50
2018-03-06T13:44:40.724Z,57.40
2018-03-06T13:47:09.796Z,56.70
2018-03-06T13:49:38.213Z,56.60
2018-03-06T13:52:06.670Z,57.70
2018-03-06T13:54:35.788Z,57.70
2018-03-06T13:57:04.146Z,57.60
2018-03-06T13:59:33.258Z,57.30
2018-03-06T14:02:01.544Z,57.60
2018-03-06T14:04:30.753Z,57.80
2018-03-06T14:07:00.254Z,58.00
2018-03-06T14:09:28.630Z,58.00
2018-03-06T14:11:57.029Z,59.30
2018-03-06T14:14:26.108Z,59.10
2018-03-06T14:16:54.586Z,59.10
2018-03-06T14:19:24.002Z,58.50
2018-03-06T14:21:52.356Z,58.60
2018-03-06T14:24:20.892Z,58.40
2018-03-06T14:26:49.240Z,58.60
2018-03-06T14:29:17.693Z,58.40
2018-03-06T14:31:46.094Z,60.10
2018-03-06T14:34:15.133Z,59.30
2018-03-06T14:36:43.506Z,60.00
2018-03-06T14:39:12.749Z,60.90
2018-03-06T14:41:41.111Z,60.90
2018-03-06T14:44:09.548Z,61.10
2018-03-06T14:46:38.876Z,61.50
2018-03-06T14:49:07.242Z,60.70
2018-03-06T14:51:36.393Z,58.80
2018-03-06T14:54:05.222Z,58.80
2018-03-06T14:56:33.573Z,60.10
2018-03-06T14:59:02.145Z,60.30
2018-03-06T15:01:30.746Z,59.50
2018-03-06T15:03:59.082Z,60.70
2018-03-06T15:06:28.534Z,60.20
2018-03-06T15:08:57.744Z,60.10
2018-03-06T15:11:26.909Z,60.30
2018-03-06T15:13:55.349Z,60.30
2018-03-06T15:16:24.041Z,59.80
2018-03-06T15:18:52.307Z,58.50
2018-03-06T15:21:22.701Z,59.50
2018-03-06T15:23:51.025Z,59.50
2018-03-06T15:26:19.335Z,60.90
2018-03-06T15:28:48.371Z,59.70
2018-03-06T15:31:16.843Z,59.30
2018-03-06T15:33:45.305Z,60.90
2018-03-06T15:36:13.565Z,61.90
2018-03-06T15:38:41.845Z,61.50
2018-03-06T15:41:10.253Z,61.60
2018-03-06T15:43:38.740Z,63.10
2018-03-06T15:46:07.445Z,61.60
2018-03-06T15:48:36.731Z,61.20
2018-03-06T15:51:06.848Z,62.60
2018-03-06T15:53:35.218Z,63.30
2018-03-06T15:56:03.703Z,62.00
2018-03-06T15:58:32.186Z,63.70
2018-03-06T16:01:00.555Z,62.20
2018-03-06T16:03:29.787Z,60.90
2018-03-06T16:05:58.761Z,61.40
2018-03-06T16:08:28.464Z,64.80
2018-03-06T16:10:56.855Z,64.80
2018-03-06T16:13:26.003Z,65.30
2018-03-06T16:15:54.331Z,65.20
2018-03-06T16:18:23.517Z,65.30
2018-03-06T16:20:51.897Z,64.10
2018-03-06T16:23:20.319Z,63.70
2018-03-06T16:25:49.486Z,63.70
2018-03-06T16:28:17.961Z,63.70
2018-03-06T16:30:46.239Z,65.00
2018-03-06T16:33:14.853Z,64.70
2018-03-06T16:35:43.799Z,65.00
2018-03-06T16:38:13.084Z,66.40
2018-03-06T16:40:41.443Z,67.40
2018-03-06T16:43:10.985Z,67.80
2018-03-06T16:45:39.594Z,67.70
2018-03-06T16:48:08.005Z,67.40
2018-03-06T16:50:37.277Z,65.70
2018-03-06T16:53:05.734Z,65.70
2018-03-06T16:55:34.150Z,66.70
2018-03-06T16:58:02.632Z,65.20
2018-03-06T17:00:31.926Z,67.00
2018-03-06T17:03:00.496Z,67.00
2018-03-06T17:05:29.084Z,67.10
2018-03-06T17:07:57.392Z,66.50
2018-03-06T17:10:26.054Z,67.50
2018-03-06T17:12:54.920Z,67.60
2018-03-06T17:15:23.430Z,69.60
2018-03-06T17:17:52.016Z,70.20
2018-03-06T17:20:20.703Z,71.50
2018-03-06T17:22:50.006Z,71.20
2018-03-06T17:25:18.383Z,71.10
2018-03-06T17:27:48.307Z,71.30
2018-03-06T17:30:16.654Z,71.30
2018-03-06T17:32:45.203Z,71.40
2018-03-06T17:35:14.774Z,71.20
2018-03-06T17:37:43.500Z,71.10
2018-03-06T17:40:12.758Z,71.70
2018-03-06T17:42:41.958Z,72.00
2018-03-06T17:45:10.439Z,72.00
2018-03-06T17:47:40.302Z,72.50
2018-03-06T17:50:08.736Z,72.50
2018-03-06T17:52:37.191Z,73.20
2018-03-06T17:55:05.709Z,73.90
2018-03-06T17:57:34.204Z,74.50
2018-03-06T18:00:02.647Z,74.50
2018-03-06T18:02:31.047Z,75.00
2018-03-06T18:04:59.427Z,75.30
2018-03-06T18:07:27.905Z,75.40
2018-03-06T18:09:56.404Z,75.20
2018-03-06T18:12:24.974Z,75.60
2018-03-06T18:14:53.697Z,76.40
2018-03-06T18:17:22.965Z,77.30
2018-03-06T18:19:51.485Z,77.10
2018-03-06T18:22:20.034Z,77.50
2018-03-06T18:24:48.726Z,77.80
2018-03-06T18:27:17.509Z,78.00
2018-03-06T18:29:46.543Z,79.10
2018-03-06T18:32:16.339Z,79.20
2018-03-06T18:34:44.732Z,79.20
2018-03-06T18:37:13.176Z,80.00
2018-03-06T18:39:43.395Z,80.90
2018-03-06T18:42:12.206Z,80.80
2018-03-06T18:44:40.783Z,81.40
2018-03-06T18:47:09.308Z,81.50
2018-03-06T18:49:38.508Z,82.40
2018-03-06T18:52:08.012Z,82.70
2018-03-06T18:54:36.613Z,82.70
2018-03-06T18:57:05.126Z,83.10
2018-03-06T18:59:34.433Z,84.10
2018-03-06T19:02:18.691Z,84.60
2018-03-06T19:05:00.046Z,85.30
2018-03-06T19:07:28.655Z,85.30
2018-03-06T19:09:57.980Z,85.50
2018-03-06T19:12:27.172Z,85.50
2018-03-06T19:14:55.584Z,85.50
2018-03-06T19:17:24.246Z,85.30
2018-03-06T19:19:53.630Z,85.10
2018-03-06T19:22:22.146Z,85.00
2018-03-06T19:24:52.232Z,84.70
2018-03-06T19:27:22.902Z,84.70
2018-03-06T19:29:52.180Z,84.00
2018-03-06T19:32:21.565Z,83.90
2018-03-06T19:34:49.871Z,84.00
2018-03-06T19:37:18.876Z,84.00
2018-03-06T19:39:47.357Z,84.40
2018-03-06T19:42:16.210Z,84.50
2018-03-06T19:44:45.803Z,85.00
2018-03-06T19:47:14.862Z,85.90
2018-03-06T19:49:43.150Z,85.80
2018-03-06T19:52:13.462Z,85.90
2018-03-06T19:54:41.740Z,85.90
2018-03-06T19:57:10.794Z,86.00
2018-03-06T19:59:40.707Z,86.10
2018-03-06T20:02:09.593Z,86.10
2018-03-06T20:04:38.026Z,86.10
2018-03-06T20:07:07.073Z,86.40
2018-03-06T20:09:35.938Z,86.40
2018-03-06T20:12:04.450Z,86.40
2018-03-06T20:14:38.766Z,86.40
2018-03-06T20:17:07.450Z,86.50
2018-03-06T20:19:40.711Z,87.00
2018-03-06T20:22:09.079Z,86.80
2018-03-06T20:24:43.121Z,86.50
2018-03-06T20:27:11.363Z,86.50
2018-03-06T20:29:40.356Z,86.60
2018-03-06T20:32:15.151Z,86.50
2018-03-06T20:34:43.556Z,86.50
2018-03-06T20:37:12.668Z,86.60
2018-03-06T20:39:46.711Z,86.40
2018-03-06T20:42:15.012Z,86.40
2018-03-06T20:44:43.318Z,86.40
2018-03-06T20:47:17.317Z,86.30
2018-03-06T20:49:45.677Z,87.00
2018-03-06T20:52:13.951Z,87.40
2018-03-06T20:54:48.236Z,86.80
2018-03-06T20:57:16.991Z,87.30
2018-03-06T20:59:46.176Z,88.20
2018-03-06T21:02:14.641Z,88.10
2018-03-06T21:04:43.377Z,88.50
2018-03-06T21:07:12.639Z,89.40
2018-03-06T21:09:40.921Z,89.40
2018-03-06T21:12:09.512Z,90.00
2018-03-06T21:14:39.046Z,90.30
2018-03-06T21:17:08.417Z,91.10
2018-03-06T21:19:37.617Z,91.20
2018-03-06T21:22:06.175Z,91.20
2018-03-06T21:24:35.720Z,90.80
2018-03-06T21:27:05.209Z,90.90
2018-03-06T21:29:33.575Z,90.80
2018-03-06T21:32:02.065Z,91.00
2018-03-06T21:34:30.546Z,90.70
2018-03-06T21:36:58.881Z,90.90
2018-03-06T21:39:27.144Z,90.70
2018-03-06T21:41:55.597Z,90.80
2018-03-06T21:44:23.972Z,90.90
2018-03-06T21:46:52.610Z,91.20
2018-03-06T21:49:20.931Z,91.10
2018-03-06T21:51:49.314Z,91.10
2018-03-06T21:54:17.804Z,91.10
2018-03-06T21:56:46.181Z,91.00
2018-03-06T21:59:14.571Z,91.10
2018-03-06T22:01:43.004Z,91.10
2018-03-06T22:04:12.661Z,91.00
2018-03-06T22:06:41.307Z,91.00
2018-03-06T22:09:09.628Z,90.90
2018-03-06T22:11:37.899Z,91.00
2018-03-06T22:14:06.317Z,90.90
2018-03-06T22:16:35.495Z,91.00
2018-03-06T22:19:03.874Z,91.00
2018-03-06T22:21:32.247Z,90.90
2018-03-06T22:24:00.549Z,91.00
2018-03-06T22:26:29.723Z,91.10
2018-03-06T22:28:58.207Z,91.00
2018-03-06T22:31:26.667Z,91.00
2018-03-06T22:33:54.895Z,91.00
2018-03-06T22:36:23.235Z,91.10
2018-03-06T22:38:51.670Z,91.00
2018-03-06T22:41:20.195Z,91.00
2018-03-06T22:43:48.679Z,91.10
2018-03-06T22:46:16.987Z,91.30
2018-03-06T22:48:45.319Z,91.10
2018-03-06T22:51:14.431Z,91.20
2018-03-06T22:53:42.891Z,91.20
2018-03-06T22:56:14.071Z,91.20
2018-03-06T22:58:42.390Z,91.70
2018-03-06T23:01:10.843Z,92.10
2018-03-06T23:03:40.006Z,91.70
2018-03-06T23:06:08.525Z,91.60
2018-03-06T23:08:37.633Z,91.70
2018-03-06T23:11:06.084Z,91.70
2018-03-06T23:13:34.431Z,91.80
2018-03-06T23:16:03.806Z,92.60
2018-03-06T23:18:32.171Z,92.50
2018-03-06T23:21:00.542Z,92.10
2018-03-06T23:23:32.692Z,92.10
2018-03-06T23:26:01.058Z,92.00
2018-03-06T23:28:29.317Z,92.40
2018-03-06T23:30:57.572Z,92.40
2018-03-06T23:33:27.016Z,92.90
2018-03-06T23:35:55.325Z,92.90
2018-03-06T23:38:24.609Z,93.60
2018-03-06T23:40:53.942Z,93.60
2018-03-06T23:43:22.398Z,93.60
2018-03-06T23:45:50.735Z,93.30
2018-03-06T23:48:19.156Z,93.30
2018-03-06T23:50:48.443Z,93.90
2018-03-06T23:53:16.775Z,93.80
2018-03-06T23:55:45.065Z,94.00
2018-03-06T23:58:14.150Z,94.10
